createdAt,value
2018-07-08T00:00:42.199Z,33.20
2018-07-08T00:05:45.468Z,33.10
2018-07-08T00:10:53.184Z,34.90
2018-07-08T00:15:56.519Z,37.10
2018-07-08T00:20:59.517Z,37.50
2018-07-08T00:26:02.609Z,35.60
2018-07-08T00:31:05.763Z,38.70
2018-07-08T00:36:08.846Z,36.40
2018-07-08T00:41:12.030Z,37.90
2018-07-08T00:46:15.324Z,38.50
2018-07-08T00:51:18.528Z,38.00
2018-07-08T00:56:21.555Z,36.60
2018-07-08T01:01:24.839Z,37.50
2018-07-08T01:06:27.813Z,37.60
2018-07-08T01:11:30.884Z,37.50
2018-07-08T01:16:34.166Z,37.40
2018-07-08T01:21:37.210Z,37.90
2018-07-08T01:26:40.316Z,38.50
2018-07-08T01:31:43.575Z,38.40
2018-07-08T01:36:46.547Z,38.00
2018-07-08T01:41:49.748Z,38.50
2018-07-08T01:46:52.770Z,39.00
2018-07-08T01:51:55.847Z,40.40
2018-07-08T01:56:59.122Z,40.90
2018-07-08T02:02:02.132Z,40.70
2018-07-08T02:07:05.790Z,41.60
2018-07-08T02:12:09.044Z,42.30
2018-07-08T02:17:12.328Z,41.00
2018-07-08T02:22:15.412Z,41.80
2018-07-08T02:27:18.760Z,42.90
2018-07-08T02:32:21.832Z,43.00
2018-07-08T02:37:25.302Z,44.50
2018-07-08T02:42:28.391Z,45.90
2018-07-08T02:47:31.492Z,45.70
2018-07-08T02:52:34.530Z,43.70
2018-07-08T02:57:37.720Z,42.00
2018-07-08T03:02:40.735Z,41.20
2018-07-08T03:07:43.939Z,41.10
2018-07-08T03:12:47.249Z,40.30
2018-07-08T03:17:50.264Z,40.20
2018-07-08T03:22:53.792Z,40.60
2018-07-08T03:27:56.770Z,40.90
2018-07-08T03:32:59.736Z,41.50
2018-07-08T03:38:02.753Z,41.60
2018-07-08T03:43:06.059Z,41.60
2018-07-08T03:48:09.100Z,41.20
2018-07-08T03:53:12.252Z,40.70
2018-07-08T03:58:15.236Z,40.40
2018-07-08T04:03:18.252Z,39.90
2018-07-08T04:08:21.195Z,39.30
2018-07-08T04:13:24.212Z,38.90
2018-07-08T04:18:27.194Z,37.50
2018-07-08T04:23:30.426Z,36.10
2018-07-08T04:28:33.632Z,33.70
2018-07-08T04:33:36.855Z,27.30
2018-07-08T04:38:39.847Z,22.60
2018-07-08T04:43:42.931Z,20.60
2018-07-08T04:48:45.848Z,19.20
2018-07-08T04:53:48.950Z,18.20
2018-07-08T04:58:52.064Z,16.00
2018-07-08T05:03:55.027Z,14.60
2018-07-08T05:08:58.388Z,14.30
2018-07-08T05:14:01.314Z,14.10
2018-07-08T05:19:04.357Z,12.60
2018-07-08T05:24:07.496Z,12.30
2018-07-08T05:29:10.484Z,13.10
2018-07-08T05:34:13.710Z,12.30
2018-07-08T05:39:17.127Z,12.60
2018-07-08T05:44:20.571Z,13.80
2018-07-08T05:49:23.544Z,12.40
2018-07-08T05:54:26.571Z,12.00
2018-07-08T06:04:32.672Z,13.80
2018-07-08T06:09:35.844Z,13.20
2018-07-08T06:14:38.969Z,12.70
2018-07-08T06:19:41.956Z,11.20
2018-07-08T06:24:45.172Z,11.40
2018-07-08T06:29:48.217Z,10.00
2018-07-08T06:34:51.217Z,8.10
2018-07-08T06:39:54.178Z,9.60
2018-07-08T06:44:57.188Z,8.70
2018-07-08T06:50:00.159Z,9.40
2018-07-08T06:55:03.240Z,5.10
2018-07-08T07:00:06.299Z,7.60
2018-07-08T07:05:09.348Z,8.80
2018-07-08T07:10:12.428Z,8.30
2018-07-08T07:15:15.428Z,8.40
2018-07-08T07:20:18.456Z,5.80
2018-07-08T07:25:21.803Z,5.00
2018-07-08T07:30:24.964Z,4.80
2018-07-08T07:35:28.157Z,8.40
2018-07-08T07:40:31.238Z,2.80
2018-07-08T07:45:34.311Z,7.00
2018-07-08T07:50:37.236Z,7.00
2018-07-08T07:55:40.316Z,5.60
2018-07-08T08:00:43.385Z,3.30
2018-07-08T08:05:46.330Z,2.30
2018-07-08T08:10:49.348Z,8.10
2018-07-08T08:15:52.526Z,6.70
2018-07-08T08:20:55.581Z,6.10
2018-07-08T08:25:58.662Z,6.70
2018-07-08T08:31:01.668Z,5.90
2018-07-08T08:36:04.722Z,2.40
2018-07-08T08:41:07.691Z,4.70
2018-07-08T08:46:10.716Z,6.70
2018-07-08T08:51:13.685Z,7.90
2018-07-08T08:56:16.647Z,6.50
2018-07-08T09:01:19.848Z,5.20
2018-07-08T09:06:22.954Z,3.20
2018-07-08T09:11:26.153Z,1.10
2018-07-08T09:16:29.258Z,1.00
2018-07-08T09:21:32.292Z,1.00
2018-07-08T09:26:35.295Z,1.00
2018-07-08T09:36:41.529Z,1.20
2018-07-08T09:41:45.357Z,1.00
2018-07-08T09:46:48.784Z,2.50
2018-07-08T09:51:52.456Z,2.10
2018-07-08T09:56:55.653Z,1.00
2018-07-08T10:01:58.612Z,1.50
2018-07-08T10:07:01.603Z,2.50
2018-07-08T10:12:04.869Z,4.00
2018-07-08T10:17:08.088Z,1.60
2018-07-08T10:22:11.094Z,3.40
2018-07-08T10:27:35.017Z,1.80
2018-07-08T10:32:38.081Z,1.30
2018-07-08T10:37:41.169Z,3.90
2018-07-08T10:42:44.374Z,1.00
2018-07-08T10:47:47.487Z,1.00
2018-07-08T10:52:50.587Z,1.50
2018-07-08T10:57:53.789Z,1.00
2018-07-08T11:02:57.754Z,1.00
2018-07-08T11:08:00.868Z,1.00
2018-07-08T11:13:04.260Z,1.60
2018-07-08T11:18:07.211Z,1.00
2018-07-08T11:23:10.369Z,1.00
2018-07-08T11:28:13.584Z,1.00
2018-07-08T11:33:16.695Z,3.40
2018-07-08T11:38:20.013Z,1.40
2018-07-08T11:43:23.411Z,1.00
2018-07-08T11:48:26.716Z,2.10
2018-07-08T11:53:29.712Z,2.10
2018-07-08T11:58:32.740Z,1.00
2018-07-08T12:03:36.141Z,2.70
2018-07-08T12:08:39.264Z,1.20
2018-07-08T12:13:42.366Z,1.00
2018-07-08T12:18:45.464Z,1.00
2018-07-08T12:23:49.136Z,1.00
2018-07-08T12:28:52.511Z,1.00
2018-07-08T12:33:55.701Z,1.00
2018-07-08T12:38:58.755Z,1.00
2018-07-08T12:44:01.979Z,1.00
2018-07-08T12:49:05.350Z,1.00
2018-07-08T12:54:08.456Z,1.00
2018-07-08T12:59:11.764Z,1.00
2018-07-08T13:04:14.843Z,1.00
2018-07-08T13:09:17.941Z,1.00
2018-07-08T13:14:21.067Z,1.00
2018-07-08T13:19:24.370Z,1.00
2018-07-08T13:24:27.587Z,1.00
2018-07-08T13:29:30.887Z,1.00
2018-07-08T13:34:33.941Z,1.00
2018-07-08T13:39:36.995Z,1.00
2018-07-08T13:44:40.177Z,1.00
2018-07-08T13:49:43.433Z,1.00
2018-07-08T13:54:46.456Z,1.00
2018-07-08T13:59:49.755Z,1.00
2018-07-08T14:04:53.049Z,1.00
2018-07-08T14:09:56.245Z,1.00
2018-07-08T14:14:59.263Z,1.00
2018-07-08T14:20:02.746Z,1.00
2018-07-08T14:25:05.790Z,1.00
2018-07-08T14:30:08.936Z,1.00
2018-07-08T14:35:12.008Z,1.00
2018-07-08T14:40:15.056Z,1.00
2018-07-08T14:45:18.320Z,1.00
2018-07-08T14:50:21.614Z,1.00
2018-07-08T14:55:24.679Z,1.00
2018-07-08T15:00:27.760Z,1.00
2018-07-08T15:05:31.149Z,1.00
2018-07-08T15:10:34.192Z,1.00
2018-07-08T15:15:37.223Z,1.00
2018-07-08T15:20:40.496Z,1.00
2018-07-08T15:25:43.474Z,1.00
2018-07-08T15:30:46.625Z,1.00
2018-07-08T15:35:49.659Z,1.00
2018-07-08T15:40:53.315Z,1.00
2018-07-08T15:45:57.164Z,1.00
2018-07-08T15:51:00.175Z,1.00
2018-07-08T15:56:03.426Z,1.00
2018-07-08T16:01:06.638Z,1.00
2018-07-08T16:06:09.807Z,1.00
2018-07-08T16:11:13.128Z,1.00
2018-07-08T16:16:16.181Z,1.00
2018-07-08T16:21:19.464Z,1.00
2018-07-08T16:26:22.524Z,1.00
2018-07-08T16:31:25.990Z,1.00
2018-07-08T16:36:29.272Z,1.00
2018-07-08T16:41:32.481Z,1.00
2018-07-08T16:46:35.499Z,1.00
2018-07-08T16:51:38.828Z,1.00
2018-07-08T16:56:42.313Z,1.00
2018-07-08T17:01:45.553Z,1.00
2018-07-08T17:06:48.735Z,1.00
2018-07-08T17:11:51.928Z,1.00
2018-07-08T17:16:54.973Z,1.00
2018-07-08T17:21:58.122Z,1.00
2018-07-08T17:27:01.075Z,1.00
2018-07-08T17:32:04.295Z,1.20
2018-07-08T17:37:07.480Z,1.00
2018-07-08T17:42:10.861Z,1.00
2018-07-08T17:47:13.901Z,1.00
2018-07-08T17:52:17.012Z,1.00
2018-07-08T17:57:19.940Z,1.00
2018-07-08T18:02:23.086Z,1.00
2018-07-08T18:07:26.369Z,1.00
2018-07-08T18:17:32.900Z,1.10
2018-07-08T18:22:35.881Z,1.00
2018-07-08T18:27:39.102Z,1.00
2018-07-08T18:32:42.389Z,1.30
2018-07-08T18:37:45.595Z,2.30
2018-07-08T18:42:49.041Z,1.20
2018-07-08T18:47:52.166Z,1.00
2018-07-08T18:52:55.255Z,1.00
2018-07-08T18:57:58.638Z,1.10
2018-07-08T19:03:02.006Z,1.30
2018-07-08T19:08:05.459Z,2.50
2018-07-08T19:13:08.740Z,2.00
2018-07-08T19:18:11.804Z,3.20
2018-07-08T19:23:14.924Z,3.90
2018-07-08T19:28:18.047Z,3.70
2018-07-08T19:33:21.451Z,4.30
2018-07-08T19:38:24.924Z,4.50
2018-07-08T19:43:28.102Z,5.00
2018-07-08T19:48:31.200Z,5.00
2018-07-08T19:53:34.324Z,5.50
2018-07-08T19:58:37.528Z,6.50
2018-07-08T20:03:41.075Z,7.60
2018-07-08T20:08:44.215Z,8.50
2018-07-08T20:13:47.583Z,9.30
2018-07-08T20:18:50.636Z,10.60
2018-07-08T20:23:53.788Z,10.20
2018-07-08T20:28:57.073Z,10.60
2018-07-08T20:34:00.532Z,10.50
2018-07-08T20:39:04.501Z,11.70
2018-07-08T20:44:07.764Z,12.30
2018-07-08T20:49:10.906Z,12.50
2018-07-08T20:54:14.275Z,12.50
2018-07-08T20:59:17.658Z,12.80
2018-07-08T21:04:21.716Z,13.00
2018-07-08T21:09:24.928Z,13.30
2018-07-08T21:14:28.008Z,13.70
2018-07-08T21:19:31.196Z,13.60
2018-07-08T21:24:34.395Z,13.50
2018-07-08T21:29:37.481Z,13.80
2018-07-08T21:34:40.772Z,13.30
2018-07-08T21:39:43.843Z,13.10
2018-07-08T21:44:47.097Z,13.70
2018-07-08T21:49:50.288Z,14.20
2018-07-08T21:54:53.621Z,14.60
2018-07-08T21:59:56.652Z,14.00
2018-07-08T22:04:59.815Z,14.40
2018-07-08T22:10:03.155Z,15.20
2018-07-08T22:15:06.249Z,14.10
2018-07-08T22:20:09.457Z,14.10
2018-07-08T22:25:12.528Z,13.50
2018-07-08T22:30:15.760Z,14.00
2018-07-08T22:35:18.850Z,14.40
2018-07-08T22:40:22.064Z,15.80
2018-07-08T22:45:25.096Z,16.40
2018-07-08T22:50:28.388Z,16.40
2018-07-08T22:55:31.703Z,16.30
2018-07-08T23:00:52.036Z,17.10
2018-07-08T23:05:55.303Z,17.90
2018-07-08T23:10:58.528Z,17.80
2018-07-08T23:16:01.572Z,18.10
2018-07-08T23:21:04.944Z,18.80
2018-07-08T23:26:08.165Z,19.60
2018-07-08T23:31:11.740Z,20.20
2018-07-08T23:36:14.939Z,19.90
2018-07-08T23:41:18.191Z,19.10
2018-07-08T23:46:21.336Z,19.10
2018-07-08T23:51:24.414Z,19.50
2018-07-08T23:56:29.335Z,21.30
